Time;durP1;ratioP1;P1;durP2;ratioP2;P2;SDS_P1;SDS_P2;PMS_P1;PMS_P2;Temp;Humidity;BMP_temperature;BMP_pressure;BME280_temperature;BME280_humidity;BME280_pressure;Samples;Min_cycle;Max_cycle;Signal;HPM_P1;HPM_P2
2023/05/25 00:02:03;;;;;;;13.10;5.30;;;11.80;99.90;;;;;;5062455;28;20484;-70
2023/05/25 00:04:35;;;;;;;15.23;5.78;;;11.60;99.90;;;;;;5063721;28;20040;-69
2023/05/25 00:07:02;;;;;;;18.55;5.80;;;;;;;;;;5063410;28;20119;-69
2023/05/25 00:09:27;;;;;;;13.75;6.13;;;11.50;99.90;;;;;;5063932;28;20040;-69
2023/05/25 00:11:53;;;;;;;12.68;5.75;;;11.70;99.90;;;;;;5062012;28;20040;-69
2023/05/25 00:14:19;;;;;;;9.27;5.32;;;11.70;99.90;;;;;;5064406;28;20519;-69
2023/05/25 00:16:47;;;;;;;19.10;6.28;;;11.70;99.90;;;;;;5064108;28;20037;-69
2023/05/25 00:19:13;;;;;;;19.60;7.03;;;11.50;99.90;;;;;;5062965;28;20037;-70
2023/05/25 00:21:40;;;;;;;18.75;7.60;;;;;;;;;;5064444;28;20107;-69
2023/05/25 00:24:06;;;;;;;16.38;5.80;;;11.60;99.90;;;;;;5063954;28;20043;-69
2023/05/25 00:26:32;;;;;;;15.90;6.53;;;11.60;99.90;;;;;;5062876;28;20120;-69
2023/05/25 00:28:59;;;;;;;14.32;5.85;;;11.60;99.90;;;;;;5064644;28;20170;-70
2023/05/25 00:31:25;;;;;;;15.18;7.00;;;11.60;99.90;;;;;;5063827;28;20037;-69
2023/05/25 00:33:51;;;;;;;14.38;6.88;;;12.00;99.90;;;;;;5062281;28;20083;-69
2023/05/25 00:36:16;;;;;;;12.43;6.68;;;11.40;99.90;;;;;;5062578;28;20083;-69
2023/05/25 00:38:42;;;;;;;13.95;6.60;;;11.50;99.90;;;;;;5064330;28;20107;-69
2023/05/25 00:41:08;;;;;;;16.20;7.10;;;11.40;99.90;;;;;;5064483;28;20036;-69
2023/05/25 00:43:33;;;;;;;14.77;7.65;;;12.40;99.90;;;;;;5062216;28;20447;-69
2023/05/25 00:46:00;;;;;;;18.48;7.32;;;11.40;99.90;;;;;;5063474;28;20076;-68
2023/05/25 00:48:25;;;;;;;14.73;6.35;;;11.40;99.90;;;;;;5063869;28;20074;-69
2023/05/25 00:50:56;;;;;;;15.88;7.10;;;11.50;99.90;;;;;;5062487;28;21142;-69
2023/05/25 00:53:22;;;;;;;13.75;6.78;;;11.60;99.90;;;;;;5061388;28;20106;-69
2023/05/25 00:56:06;;;;;;;12.10;6.13;;;11.40;99.90;;;;;;5063046;28;20041;-69
2023/05/25 00:58:32;;;;;;;;;;;11.30;99.90;;;;;;5064939;28;20114;-69
2023/05/25 01:01:00;;;;;;;18.48;6.85;;;11.30;99.90;;;;;;5061684;28;19920;-69
2023/05/25 01:03:29;;;;;;;15.32;7.63;;;11.30;99.90;;;;;;5063208;28;20040;-69
2023/05/25 01:05:57;;;;;;;17.10;7.68;;;11.70;99.90;;;;;;5072282;28;20538;-68
2023/05/25 01:08:24;;;;;;;16.98;7.05;;;11.30;99.90;;;;;;5073840;28;20082;-69
2023/05/25 01:10:51;;;;;;;15.73;6.60;;;11.30;99.90;;;;;;5073689;28;20040;-69
2023/05/25 01:13:19;;;;;;;22.17;7.78;;;11.60;99.90;;;;;;5072441;28;20037;-69
2023/05/25 01:15:46;;;;;;;18.88;7.28;;;11.40;99.90;;;;;;5071860;28;20078;-69
2023/05/25 01:18:15;;;;;;;18.52;7.60;;;11.40;99.90;;;;;;5072260;28;20124;-69
2023/05/25 01:21:11;;;;;;;18.65;7.50;;;11.10;99.90;;;;;;5073491;28;20057;-69
2023/05/25 01:23:45;;;;;;;18.92;8.00;;;11.40;99.90;;;;;;5072869;28;20072;-69
2023/05/25 01:26:15;;;;;;;14.90;7.55;;;11.40;99.90;;;;;;5073370;28;20048;-69
2023/05/25 01:28:46;;;;;;;18.30;7.78;;;11.10;99.90;;;;;;5073453;28;20113;-70
2023/05/25 01:31:13;;;;;;;19.75;6.75;;;11.30;99.90;;;;;;5073496;28;20644;-68
2023/05/25 01:33:42;;;;;;;14.88;7.72;;;11.20;99.90;;;;;;5070897;28;20029;-69
2023/05/25 01:36:08;;;;;;;19.70;7.50;;;11.50;99.90;;;;;;5072919;28;20051;-68
2023/05/25 01:38:34;;;;;;;20.05;8.10;;;11.50;99.90;;;;;;5072595;28;20032;-69
2023/05/25 01:41:00;;;;;;;20.35;8.13;;;11.00;99.90;;;;;;5073223;28;20025;-69
2023/05/25 01:43:25;;;;;;;19.55;7.57;;;11.20;99.90;;;;;;5072365;28;20036;-69
2023/05/25 01:46:00;;;;;;;16.85;7.53;;;12.20;99.90;;;;;;5071308;28;20115;-69
2023/05/25 01:49:18;;;;;;;20.23;8.30;;;11.10;99.90;;;;;;5072041;28;20624;-69
2023/05/25 01:52:02;;;;;;;19.20;8.43;;;11.20;99.90;;;;;;5051122;28;20104;-68
2023/05/25 01:54:35;;;;;;;20.63;8.20;;;11.10;99.90;;;;;;5052971;28;20112;-69
2023/05/25 01:57:11;;;;;;;16.75;9.20;;;11.30;99.90;;;;;;5052828;28;20044;-69
2023/05/25 01:59:37;;;;;;;17.98;8.13;;;11.30;99.90;;;;;;5052678;28;20037;-69
2023/05/25 02:02:04;;;;;;;20.80;10.00;;;11.20;99.90;;;;;;5052175;28;20041;-68
2023/05/25 02:04:30;;;;;;;19.60;8.88;;;11.60;99.90;;;;;;5064378;28;20101;-69
2023/05/25 02:06:56;;;;;;;20.98;9.77;;;11.90;99.90;;;;;;5072282;28;20045;-69
2023/05/25 02:09:22;;;;;;;20.55;9.93;;;11.50;99.90;;;;;;5072465;28;20040;-69
2023/05/25 02:11:48;;;;;;;21.23;9.35;;;11.40;99.90;;;;;;5072069;28;20040;-69
2023/05/25 02:14:14;;;;;;;19.70;9.82;;;11.20;99.90;;;;;;5071802;28;20182;-69
2023/05/25 02:16:41;;;;;;;21.77;10.80;;;11.30;99.90;;;;;;5072087;28;20041;-69
2023/05/25 02:19:07;;;;;;;33.45;10.70;;;11.20;99.90;;;;;;5072491;28;20044;-69
2023/05/25 02:21:35;;;;;;;20.80;9.68;;;11.50;99.90;;;;;;5070192;28;20029;-69
2023/05/25 02:24:00;;;;;;;14.90;8.48;;;11.40;99.90;;;;;;5071243;28;20083;-69
2023/05/25 02:26:26;;;;;;;22.00;8.90;;;11.50;99.90;;;;;;5071882;28;20497;-69
2023/05/25 02:28:52;;;;;;;25.38;9.95;;;11.40;99.90;;;;;;5072298;28;20044;-69
2023/05/25 02:31:17;;;;;;;16.92;9.43;;;11.20;99.90;;;;;;5072136;28;20048;-69
2023/05/25 02:33:43;;;;;;;21.55;9.68;;;11.80;99.90;;;;;;5071266;28;20044;-69
2023/05/25 02:36:08;;;;;;;19.05;8.90;;;11.20;99.90;;;;;;5071918;28;20522;-69
2023/05/25 02:38:34;;;;;;;21.45;9.63;;;11.30;99.90;;;;;;5069995;28;20572;-69
2023/05/25 02:41:00;;;;;;;15.70;9.65;;;11.20;99.90;;;;;;5071519;28;20032;-69
2023/05/25 02:43:26;;;;;;;22.25;11.13;;;;;;;;;;5071525;28;20040;-69
2023/05/25 02:45:52;;;;;;;20.38;9.52;;;;;;;;;;5071959;28;20040;-69
2023/05/25 02:48:17;;;;;;;22.75;9.50;;;11.30;99.90;;;;;;5071798;28;20047;-69
2023/05/25 02:50:43;;;;;;;17.45;8.45;;;11.10;99.90;;;;;;5071992;28;20115;-69
2023/05/25 02:53:09;;;;;;;16.58;8.43;;;;;;;;;;5071035;28;20385;-69
2023/05/25 02:55:36;;;;;;;20.23;9.70;;;11.10;99.90;;;;;;5057376;28;20090;-69
2023/05/25 02:58:02;;;;;;;19.38;11.02;;;;;;;;;;5051613;28;20052;-69
2023/05/25 03:00:28;;;;;;;18.17;9.38;;;;;;;;;;5070516;28;20435;-69
2023/05/25 03:02:54;;;;;;;15.48;9.93;;;;;;;;;;5071191;28;20102;-69
2023/05/25 03:05:20;;;;;;;21.83;10.60;;;11.00;99.90;;;;;;5071795;28;20111;-69
2023/05/25 03:07:46;;;;;;;19.55;10.52;;;11.00;99.90;;;;;;5071434;28;20037;-68
2023/05/25 03:10:12;;;;;;;17.85;10.45;;;11.00;99.90;;;;;;5071487;28;20051;-69
2023/05/25 03:12:38;;;;;;;19.40;11.63;;;;;;;;;;5067814;28;20040;-68
2023/05/25 03:15:04;;;;;;;20.67;10.75;;;10.70;99.90;;;;;;5071758;28;20036;-69
2023/05/25 03:17:30;;;;;;;18.55;9.43;;;;;;;;;;5071454;28;20064;-69
2023/05/25 03:19:56;;;;;;;19.15;10.68;;;10.80;99.90;;;;;;5071541;28;20125;-70
2023/05/25 03:22:22;;;;;;;19.48;9.93;;;;;;;;;;5070830;28;20093;-69
2023/05/25 03:24:48;;;;;;;24.95;10.18;;;;;;;;;;5071448;28;20048;-69
2023/05/25 03:27:14;;;;;;;20.00;9.63;;;10.90;99.90;;;;;;5064187;28;20049;-69
2023/05/25 03:29:40;;;;;;;23.80;10.40;;;10.70;99.90;;;;;;5051378;28;20069;-68
2023/05/25 03:32:06;;;;;;;22.08;11.10;;;;;;;;;;5057968;28;20539;-68
2023/05/25 03:34:34;;;;;;;20.67;9.77;;;;;;;;;;5071733;28;20040;-69
2023/05/25 03:37:00;;;;;;;17.88;10.23;;;10.90;99.90;;;;;;5075136;28;20488;-69
2023/05/25 03:39:31;;;;;;;22.52;10.23;;;10.80;99.90;;;;;;5075367;28;20043;-68
2023/05/25 03:41:57;;;;;;;23.02;9.88;;;;;;;;;;5067246;28;20143;-69
2023/05/25 03:44:23;;;;;;;20.50;9.68;;;10.90;99.90;;;;;;5054985;28;20064;-69
2023/05/25 03:46:49;;;;;;;23.58;10.30;;;10.80;99.90;;;;;;5055195;28;20517;-69
2023/05/25 03:49:14;;;;;;;21.77;10.93;;;10.80;99.90;;;;;;5055263;28;20037;-70
2023/05/25 03:51:42;;;;;;;22.40;10.77;;;11.00;99.90;;;;;;5054721;28;20641;-68
2023/05/25 03:54:07;;;;;;;23.90;11.80;;;10.80;99.90;;;;;;5054403;28;20041;-69
2023/05/25 03:56:33;;;;;;;24.27;11.77;;;;;;;;;;5054993;28;20040;-69
2023/05/25 03:58:59;;;;;;;25.88;11.45;;;;;;;;;;5056129;28;20558;-69
2023/05/25 04:01:28;;;;;;;22.80;11.88;;;;;;;;;;5054979;28;20158;-69
2023/05/25 04:03:54;;;;;;;19.63;11.32;;;;;;;;;;5054364;28;20513;-69
2023/05/25 04:06:20;;;;;;;21.80;11.70;;;11.20;99.90;;;;;;5054543;28;20125;-69
2023/05/25 04:08:46;;;;;;;19.67;11.18;;;11.50;99.90;;;;;;5054584;28;20065;-69
2023/05/25 04:11:12;;;;;;;17.15;12.05;;;11.30;99.90;;;;;;5054952;28;20048;-69
2023/05/25 04:13:39;;;;;;;24.23;11.43;;;;;;;;;;5054153;28;20467;-69
2023/05/25 04:16:05;;;;;;;19.85;10.65;;;11.20;99.90;;;;;;5055701;28;20094;-69
2023/05/25 04:18:32;;;;;;;20.58;11.23;;;11.50;99.90;;;;;;5054715;28;20037;-69
2023/05/25 04:20:58;;;;;;;25.25;11.93;;;11.30;99.90;;;;;;5054592;28;20037;-69
2023/05/25 04:23:24;;;;;;;22.23;10.25;;;;;;;;;;5053830;28;20037;-69
2023/05/25 04:25:53;;;;;;;19.75;10.27;;;11.70;99.90;;;;;;5059463;28;20514;-69
2023/05/25 04:28:19;;;;;;;21.67;9.82;;;;;;;;;;5054295;28;20102;-69
2023/05/25 04:30:44;;;;;;;20.80;10.85;;;11.70;99.90;;;;;;5054126;28;20045;-69
2023/05/25 04:33:10;;;;;;;20.52;11.05;;;11.50;99.90;;;;;;5060432;28;20037;-69
2023/05/25 04:35:36;;;;;;;19.60;10.55;;;11.60;99.90;;;;;;5074281;28;20527;-69
2023/05/25 04:38:03;;;;;;;25.15;11.90;;;11.50;99.90;;;;;;5056968;28;20401;-69
2023/05/25 04:40:31;;;;;;;23.80;11.30;;;;;;;;;;5054185;28;20334;-69
2023/05/25 04:42:57;;;;;;;23.90;10.65;;;11.80;99.90;;;;;;5053633;28;20045;-69
2023/05/25 04:45:24;;;;;;;27.45;12.20;;;;;;;;;;5054203;28;20041;-69
2023/05/25 04:47:50;;;;;;;25.75;11.13;;;;;;;;;;5053201;28;20059;-69
2023/05/25 04:50:16;;;;;;;20.23;10.88;;;;;;;;;;5055022;28;20045;-69
2023/05/25 04:52:42;;;;;;;23.35;11.23;;;;;;;;;;5053381;28;20099;-69
2023/05/25 04:55:08;;;;;;;26.73;11.98;;;11.80;99.90;;;;;;5054187;28;20615;-69
2023/05/25 04:57:34;;;;;;;22.25;10.88;;;;;;;;;;5053706;28;20037;-69
2023/05/25 05:00:00;;;;;;;24.85;10.80;;;11.90;99.90;;;;;;5053900;28;20044;-69
2023/05/25 05:02:25;;;;;;;19.70;10.85;;;11.90;99.90;;;;;;5053270;28;20033;-69
2023/05/25 05:04:51;;;;;;;26.70;11.10;;;11.80;99.90;;;;;;5053668;28;20496;-69
2023/05/25 05:07:17;;;;;;;22.42;10.05;;;12.10;99.90;;;;;;5063670;28;20112;-69
2023/05/25 05:09:43;;;;;;;26.80;9.63;;;;;;;;;;5066677;28;20039;-69
2023/05/25 05:12:08;;;;;;;19.30;10.38;;;12.00;99.90;;;;;;5073028;28;20072;-69
2023/05/25 05:14:34;;;;;;;24.80;10.10;;;12.00;99.90;;;;;;5073711;28;20040;-69
2023/05/25 05:17:00;;;;;;;26.00;10.90;;;12.20;99.90;;;;;;5066169;28;20029;-69
2023/05/25 05:19:26;;;;;;;22.45;9.88;;;;;;;;;;5073308;28;20044;-69
2023/05/25 05:21:52;;;;;;;19.30;10.75;;;;;;;;;;5064218;28;20048;-69
2023/05/25 05:24:17;;;;;;;23.05;11.07;;;12.10;99.90;;;;;;5065287;28;20078;-69
2023/05/25 05:26:43;;;;;;;24.25;10.23;;;12.40;99.90;;;;;;5060803;28;20400;-69
2023/05/25 05:29:09;;;;;;;22.90;11.05;;;12.40;99.90;;;;;;5053244;28;20037;-69
2023/05/25 05:31:35;;;;;;;16.63;9.70;;;12.40;99.90;;;;;;5073084;28;20461;-69
2023/05/25 05:34:01;;;;;;;23.70;10.70;;;12.80;99.90;;;;;;5062412;28;20037;-67
2023/05/25 05:36:29;;;;;;;23.65;10.73;;;;;;;;;;5069157;28;20059;-70
2023/05/25 05:38:55;;;;;;;23.52;10.50;;;12.70;99.90;;;;;;5070620;28;20059;-67
2023/05/25 05:41:20;;;;;;;18.27;9.48;;;12.80;99.90;;;;;;5061085;28;20033;-69
2023/05/25 05:43:46;;;;;;;23.77;10.80;;;;;;;;;;5067566;28;20044;-69
2023/05/25 05:46:12;;;;;;;25.63;9.98;;;;;;;;;;5064729;28;20044;-69
2023/05/25 05:48:38;;;;;;;21.95;9.10;;;;;;;;;;5063156;28;20036;-69
2023/05/25 05:51:05;;;;;;;21.08;10.07;;;12.90;99.90;;;;;;5047901;28;20075;-68
2023/05/25 05:53:31;;;;;;;22.85;9.57;;;;;;;;;;5058344;28;20485;-69
2023/05/25 05:55:58;;;;;;;17.92;9.65;;;12.80;99.90;;;;;;5053011;28;20445;-69
2023/05/25 05:58:28;;;;;;;20.60;8.80;;;13.10;99.90;;;;;;5060642;28;20059;-69
2023/05/25 06:00:55;;;;;;;24.25;9.82;;;13.20;99.90;;;;;;5062443;28;20044;-69
2023/05/25 06:03:22;;;;;;;22.13;10.75;;;;;;;;;;5049911;28;20110;-69
2023/05/25 06:05:48;;;;;;;21.40;9.45;;;;;;;;;;5054214;28;20048;-69
2023/05/25 06:08:14;;;;;;;17.08;8.13;;;13.20;99.90;;;;;;5048277;28;20064;-69
2023/05/25 06:10:39;;;;;;;17.50;8.75;;;13.40;99.90;;;;;;5051679;28;20600;-68
2023/05/25 06:13:06;;;;;;;21.48;9.00;;;;;;;;;;5054862;28;20420;-67
2023/05/25 06:15:32;;;;;;;17.70;8.10;;;;;;;;;;5047684;28;20047;-69
2023/05/25 06:17:58;;;;;;;26.23;8.98;;;13.50;99.90;;;;;;5050930;28;20052;-69
2023/05/25 06:20:44;;;;;;;18.20;8.18;;;13.30;99.90;;;;;;5064911;28;20075;-69
2023/05/25 06:23:12;;;;;;;18.83;8.32;;;13.40;99.90;;;;;;5056468;28;20044;-68
2023/05/25 06:25:38;;;;;;;17.27;7.53;;;13.50;99.90;;;;;;5059797;28;20056;-69
2023/05/25 06:28:04;;;;;;;17.23;7.65;;;13.60;99.90;;;;;;5066611;28;20040;-68
2023/05/25 06:30:30;;;;;;;19.20;8.35;;;13.60;99.90;;;;;;5058314;28;20044;-69
2023/05/25 06:32:56;;;;;;;16.98;7.40;;;13.80;99.90;;;;;;5049710;28;20056;-69
2023/05/25 06:35:21;;;;;;;19.27;7.47;;;13.60;99.90;;;;;;5056229;28;20175;-69
2023/05/25 06:37:48;;;;;;;17.70;7.65;;;13.70;99.90;;;;;;5051447;28;20115;-70
2023/05/25 06:40:17;;;;;;;17.77;6.70;;;13.60;99.90;;;;;;5046094;28;20122;-68
2023/05/25 06:42:43;;;;;;;18.58;6.45;;;13.70;99.90;;;;;;5045940;28;20033;-69
2023/05/25 06:45:09;;;;;;;12.25;5.75;;;13.70;99.90;;;;;;5047123;28;20033;-69
2023/05/25 06:47:36;;;;;;;12.45;4.65;;;13.70;99.90;;;;;;5047245;28;20144;-69
2023/05/25 06:50:01;;;;;;;14.52;3.85;;;13.90;99.90;;;;;;5051118;28;20715;-65
2023/05/25 06:52:27;;;;;;;15.73;5.15;;;13.90;99.90;;;;;;5046255;28;20129;-68
2023/05/25 06:54:53;;;;;;;12.10;4.13;;;14.00;99.90;;;;;;5047876;28;20051;-69
2023/05/25 06:57:19;;;;;;;11.80;3.83;;;14.10;99.90;;;;;;5047323;28;20104;-69
2023/05/25 06:59:45;;;;;;;13.73;4.57;;;14.00;99.90;;;;;;5046106;28;20691;-69
2023/05/25 07:02:10;;;;;;;20.70;4.60;;;14.10;99.90;;;;;;5045735;28;20044;-70
2023/05/25 07:04:36;;;;;;;14.77;4.05;;;14.10;99.90;;;;;;5054944;28;20033;-69
2023/05/25 07:07:02;;;;;;;15.70;4.55;;;14.10;99.90;;;;;;5063646;28;20495;-70
2023/05/25 07:09:28;;;;;;;13.68;4.05;;;14.30;99.90;;;;;;5047683;28;20069;-69
2023/05/25 07:11:54;;;;;;;16.63;3.83;;;14.50;99.90;;;;;;5047824;28;20165;-69
2023/05/25 07:14:19;;;;;;;12.90;4.45;;;14.40;99.90;;;;;;5050415;28;20041;-69
2023/05/25 07:16:45;;;;;;;20.85;4.95;;;14.40;99.90;;;;;;5049899;28;20049;-68
2023/05/25 07:19:11;;;;;;;13.93;4.20;;;14.30;99.90;;;;;;5051456;28;20090;-70
2023/05/25 07:21:37;;;;;;;23.45;6.68;;;14.50;99.90;;;;;;5050016;28;20090;-68
2023/05/25 07:24:03;;;;;;;19.00;5.22;;;14.30;99.90;;;;;;5064151;28;20163;-69
2023/05/25 07:26:30;;;;;;;17.23;4.50;;;14.40;99.90;;;;;;5065246;28;20032;-69
2023/05/25 07:28:56;;;;;;;14.27;5.30;;;14.60;99.90;;;;;;5062175;28;20028;-69
2023/05/25 07:31:22;;;;;;;15.15;4.50;;;14.60;99.90;;;;;;5065727;28;20029;-68
2023/05/25 07:33:48;;;;;;;12.68;4.57;;;14.60;99.90;;;;;;5059181;28;20041;-68
2023/05/25 07:36:14;;;;;;;15.60;4.43;;;14.90;99.90;;;;;;5065152;28;20035;-68
2023/05/25 07:38:39;;;;;;;14.45;5.97;;;14.80;99.90;;;;;;5071358;28;20120;-69
2023/05/25 07:41:05;;;;;;;15.35;4.68;;;15.00;99.90;;;;;;5070462;28;20041;-69
2023/05/25 07:43:31;;;;;;;17.13;4.28;;;14.60;99.90;;;;;;5070652;28;20040;-68
2023/05/25 07:45:56;;;;;;;17.15;4.50;;;14.70;99.90;;;;;;5071151;28;20042;-67
2023/05/25 07:48:22;;;;;;;17.38;4.55;;;15.00;99.90;;;;;;5071188;28;20458;-68
2023/05/25 07:50:48;;;;;;;17.73;5.07;;;14.90;99.90;;;;;;5067386;28;20123;-69
2023/05/25 07:53:13;;;;;;;19.00;5.40;;;14.90;99.90;;;;;;5072471;28;20036;-69
2023/05/25 07:55:39;;;;;;;22.17;4.97;;;14.90;99.90;;;;;;5087622;28;20036;-69
2023/05/25 07:58:06;;;;;;;23.13;6.35;;;15.00;99.90;;;;;;5049201;28;20044;-69
2023/05/25 08:00:32;;;;;;;25.02;5.35;;;15.00;99.90;;;;;;5049199;28;20047;-69
2023/05/25 08:02:58;;;;;;;22.63;5.22;;;15.10;99.90;;;;;;5052392;28;20055;-69
2023/05/25 08:05:23;;;;;;;22.55;4.88;;;15.00;99.90;;;;;;5057335;28;20037;-69
2023/05/25 08:07:49;;;;;;;23.90;5.75;;;16.00;99.90;;;;;;5059299;28;20032;-70
2023/05/25 08:10:15;;;;;;;23.70;5.43;;;15.70;99.90;;;;;;5058891;28;20044;-69
2023/05/25 08:12:40;;;;;;;15.75;4.65;;;15.80;99.90;;;;;;5058956;28;20033;-69
2023/05/25 08:15:06;;;;;;;21.00;5.10;;;15.60;99.90;;;;;;5059260;28;20555;-69
2023/05/25 08:17:32;;;;;;;24.58;5.30;;;15.00;99.90;;;;;;5060716;28;20116;-69
2023/05/25 08:19:57;;;;;;;16.30;5.03;;;15.30;99.90;;;;;;5060530;28;20041;-69
2023/05/25 08:22:23;;;;;;;21.63;4.95;;;15.10;99.90;;;;;;5060509;28;20055;-69
2023/05/25 08:24:49;;;;;;;19.15;5.03;;;14.90;99.90;;;;;;5055343;28;20434;-68
2023/05/25 08:27:15;;;;;;;16.13;4.30;;;14.80;99.90;;;;;;5054195;28;20159;-68
2023/05/25 08:29:41;;;;;;;19.27;4.38;;;14.90;99.90;;;;;;5062527;28;20040;-68
2023/05/25 08:32:07;;;;;;;22.90;5.00;;;16.40;99.90;;;;;;5064134;28;20377;-69
2023/05/25 08:34:33;;;;;;;20.80;4.20;;;15.50;99.90;;;;;;5063303;28;20489;-68
2023/05/25 08:36:58;;;;;;;20.38;4.30;;;15.90;99.90;;;;;;5063468;28;20116;-68
2023/05/25 08:39:24;;;;;;;16.42;4.95;;;15.80;99.90;;;;;;5064813;28;20446;-69
2023/05/25 08:41:50;;;;;;;16.85;4.32;;;15.80;99.90;;;;;;5062874;28;20083;-69
2023/05/25 08:44:16;;;;;;;19.90;5.53;;;16.90;99.90;;;;;;5063094;28;20039;-69
2023/05/25 08:46:42;;;;;;;25.90;5.65;;;16.10;99.90;;;;;;5066266;28;20036;-69
2023/05/25 08:49:12;;;;;;;20.48;5.50;;;;;;;;;;5073990;28;20246;-69
2023/05/25 08:51:50;;;;;;;20.83;5.20;;;15.80;99.90;;;;;;5074015;28;20428;-70
2023/05/25 08:54:25;;;;;;;24.73;5.78;;;15.00;99.90;;;;;;5073683;28;20054;-68
2023/05/25 08:57:24;;;;;;;26.35;4.88;;;15.00;99.90;;;;;;5074011;28;20064;-68
2023/05/25 09:00:09;;;;;;;19.42;4.70;;;14.90;99.90;;;;;;5069689;28;20052;-68
2023/05/25 09:02:59;;;;;;;19.73;5.57;;;15.10;99.90;;;;;;5073252;28;20036;-68
2023/05/25 09:05:24;;;;;;;22.42;5.82;;;15.80;99.90;;;;;;5053802;28;20040;-68
2023/05/25 09:07:53;;;;;;;15.32;4.10;;;16.00;99.90;;;;;;5055534;28;20539;-68
2023/05/25 09:10:19;;;;;;;19.58;4.57;;;15.90;99.90;;;;;;5059226;28;20492;-68
2023/05/25 09:12:45;;;;;;;21.13;5.32;;;15.40;99.90;;;;;;5061982;28;20538;-67
2023/05/25 09:15:11;;;;;;;22.27;4.70;;;16.40;99.90;;;;;;5062664;28;20045;-68
2023/05/25 09:17:38;;;;;;;21.08;4.55;;;16.60;99.90;;;;;;5063643;28;20031;-68
2023/05/25 09:20:05;;;;;;;21.83;4.78;;;16.50;99.90;;;;;;5062389;28;20034;-67
2023/05/25 09:22:30;;;;;;;17.30;4.55;;;15.70;99.90;;;;;;5063027;28;20087;-68
2023/05/25 09:24:56;;;;;;;20.50;4.95;;;16.10;99.90;;;;;;5070610;28;20518;-68
2023/05/25 09:27:22;;;;;;;16.58;4.47;;;16.60;99.90;;;;;;5073096;28;20059;-68
2023/05/25 09:29:49;;;;;;;26.30;6.38;;;16.70;99.90;;;;;;5073370;28;20048;-68
2023/05/25 09:32:15;;;;;;;22.55;5.07;;;15.90;99.90;;;;;;5065171;28;20032;-68
2023/05/25 09:34:45;;;;;;;22.58;4.55;;;15.40;99.90;;;;;;5062688;28;20033;-68
2023/05/25 09:37:15;;;;;;;23.27;5.40;;;16.10;99.90;;;;;;5040348;28;20108;-68
2023/05/25 09:39:44;;;;;;;23.00;5.47;;;15.90;99.90;;;;;;5063949;28;20032;-68
2023/05/25 09:42:10;;;;;;;18.35;4.60;;;16.20;99.90;;;;;;5054894;28;20032;-69
2023/05/25 09:44:36;;;;;;;21.75;5.07;;;16.20;99.90;;;;;;5034939;28;20041;-69
2023/05/25 09:47:03;;;;;;;20.63;5.80;;;16.50;99.90;;;;;;5052683;28;20531;-67
2023/05/25 09:49:29;;;;;;;22.17;4.05;;;16.30;99.90;;;;;;5052587;28;20028;-68
2023/05/25 09:51:55;;;;;;;18.27;4.72;;;16.20;99.90;;;;;;5057042;28;20128;-68
2023/05/25 09:54:24;;;;;;;20.70;5.28;;;16.30;99.90;;;;;;5072087;28;20039;-70
2023/05/25 09:56:50;;;;;;;21.98;5.65;;;16.70;99.90;;;;;;5071976;28;20040;-68
2023/05/25 09:59:16;;;;;;;20.77;4.53;;;16.50;99.90;;;;;;5069199;28;20040;-68
2023/05/25 10:01:43;;;;;;;22.85;5.10;;;16.60;99.90;;;;;;5066106;28;20036;-67
2023/05/25 10:04:09;;;;;;;17.80;3.72;;;16.80;99.90;;;;;;5068877;28;20044;-69
2023/05/25 10:06:38;;;;;;;15.88;3.83;;;17.10;99.90;;;;;;5056119;28;20052;-68
2023/05/25 10:09:07;;;;;;;16.10;5.18;;;16.10;99.90;;;;;;5053557;28;20041;-68
2023/05/25 10:11:35;;;;;;;24.80;5.70;;;16.60;99.90;;;;;;5052230;28;20449;-69
2023/05/25 10:14:05;;;;;;;24.00;5.35;;;16.50;99.90;;;;;;5051845;28;20045;-69
2023/05/25 10:16:33;;;;;;;21.50;5.78;;;17.10;99.90;;;;;;5052023;28;20416;-68
2023/05/25 10:19:32;;;;;;;20.58;4.72;;;16.60;99.90;;;;;;5052108;28;20504;-69
2023/05/25 10:22:21;;;;;;;23.08;4.55;;;16.90;99.90;;;;;;5047866;28;20051;-69
2023/05/25 10:24:55;;;;;;;17.88;4.50;;;16.50;99.90;;;;;;5052078;28;20040;-68
2023/05/25 10:27:24;;;;;;;26.92;5.68;;;16.50;99.90;;;;;;5051903;28;20051;-68
2023/05/25 10:29:51;;;;;;;20.63;5.68;;;16.10;99.90;;;;;;5068531;28;20047;-69
2023/05/25 10:32:17;;;;;;;22.80;4.10;;;16.20;99.90;;;;;;5056863;28;20048;-68
2023/05/25 10:34:44;;;;;;;19.30;5.07;;;16.20;99.90;;;;;;5051791;28;20441;-68
2023/05/25 10:37:12;;;;;;;22.55;5.20;;;16.70;99.90;;;;;;5051801;28;20118;-69
2023/05/25 10:39:41;;;;;;;18.27;5.53;;;16.90;99.90;;;;;;5052963;28;20048;-69
2023/05/25 10:42:07;;;;;;;20.98;5.03;;;17.00;99.90;;;;;;5059009;28;20029;-69
2023/05/25 10:44:33;;;;;;;19.58;4.57;;;17.00;99.90;;;;;;5051273;28;20040;-69
2023/05/25 10:46:59;;;;;;;13.25;4.68;;;16.80;99.90;;;;;;5051750;28;20504;-68
2023/05/25 10:49:30;;;;;;;19.58;4.85;;;17.30;99.90;;;;;;5045775;28;20116;-68
2023/05/25 10:51:58;;;;;;;23.20;5.00;;;17.30;99.90;;;;;;5047369;28;20040;-68
2023/05/25 10:54:29;;;;;;;23.63;5.43;;;17.80;99.90;;;;;;5050405;28;20091;-67
2023/05/25 10:57:10;;;;;;;18.80;5.20;;;17.90;99.90;;;;;;5047092;28;20041;-67
2023/05/25 10:59:40;;;;;;;20.05;4.50;;;16.80;99.90;;;;;;5052909;28;20516;-67
2023/05/25 11:02:06;;;;;;;18.80;4.63;;;16.90;99.90;;;;;;5055625;28;20040;-67
2023/05/25 11:04:36;;;;;;;19.25;5.82;;;16.00;99.90;;;;;;5056551;28;20532;-67
2023/05/25 11:07:01;;;;;;;21.48;5.00;;;16.60;99.90;;;;;;5047596;28;20037;-67
2023/05/25 11:09:30;;;;;;;18.02;5.18;;;16.70;99.90;;;;;;5054562;28;20308;-67
2023/05/25 11:11:57;;;;;;;23.38;5.28;;;17.60;99.90;;;;;;5063386;28;20036;-67
2023/05/25 11:14:28;;;;;;;21.75;5.25;;;17.20;99.90;;;;;;5067442;28;20067;-66
2023/05/25 11:17:09;;;;;;;22.83;5.45;;;17.10;99.90;;;;;;5055805;28;20072;-67
2023/05/25 11:19:42;;;;;;;18.00;5.75;;;15.90;99.90;;;;;;5070018;28;20101;-67
2023/05/25 11:22:20;;;;;;;25.70;4.85;;;16.80;99.90;;;;;;5069950;28;20036;-66
2023/05/25 11:24:52;;;;;;;21.65;5.22;;;16.90;99.90;;;;;;5059315;28;20045;-68
2023/05/25 11:27:22;;;;;;;23.08;5.80;;;16.80;99.90;;;;;;5058432;28;20037;-67
2023/05/25 11:29:52;;;;;;;25.27;5.25;;;16.80;99.90;;;;;;5059141;28;20056;-67
2023/05/25 11:32:18;;;;;;;19.02;4.32;;;16.40;99.90;;;;;;5064999;28;20041;-68
2023/05/25 11:34:47;;;;;;;19.67;4.80;;;16.70;99.90;;;;;;5054261;28;20024;-68
2023/05/25 11:37:16;;;;;;;16.95;4.40;;;16.10;99.90;;;;;;5058950;28;20036;-67
2023/05/25 11:39:45;;;;;;;19.42;5.05;;;16.50;99.90;;;;;;5060026;28;20029;-66
2023/05/25 11:42:13;;;;;;;22.48;4.53;;;17.10;99.90;;;;;;5066832;28;20040;-67
2023/05/25 11:44:40;;;;;;;15.18;4.28;;;16.90;99.90;;;;;;5061372;28;20048;-66
2023/05/25 11:47:21;;;;;;;15.60;4.18;;;17.30;99.90;;;;;;5070334;28;20056;-67
2023/05/25 11:49:48;;;;;;;26.35;4.53;;;17.30;99.90;;;;;;5070458;28;20055;-67
2023/05/25 11:52:19;;;;;;;23.42;5.40;;;16.80;99.90;;;;;;5066953;28;20037;-67
2023/05/25 11:54:45;;;;;;;22.50;5.13;;;16.70;99.90;;;;;;5069317;28;20457;-67
2023/05/25 11:57:18;;;;;;;17.38;4.45;;;17.10;99.90;;;;;;5068908;28;20530;-67
2023/05/25 11:59:49;;;;;;;22.17;5.40;;;17.30;99.90;;;;;;5073697;28;20040;-67
2023/05/25 12:02:14;;;;;;;19.90;5.10;;;16.70;99.90;;;;;;5062093;28;20041;-67
2023/05/25 12:04:41;;;;;;;22.02;4.35;;;16.50;99.90;;;;;;5066983;28;20037;-67
2023/05/25 12:07:07;;;;;;;21.17;5.82;;;16.20;99.90;;;;;;5072778;28;20115;-67
2023/05/25 12:09:34;;;;;;;21.10;4.75;;;16.20;99.90;;;;;;5064847;28;20116;-67
2023/05/25 12:12:02;;;;;;;23.90;5.07;;;16.80;99.90;;;;;;5070425;28;20079;-67
2023/05/25 12:14:28;;;;;;;22.67;5.13;;;16.80;99.90;;;;;;5073240;28;20056;-66
2023/05/25 12:16:55;;;;;;;26.02;4.90;;;17.20;99.90;;;;;;5070163;28;20419;-67
2023/05/25 12:19:21;;;;;;;25.30;5.20;;;17.10;99.90;;;;;;5059388;28;20491;-67
2023/05/25 12:21:49;;;;;;;21.27;5.43;;;17.00;99.90;;;;;;5072873;28;20404;-66
2023/05/25 12:24:16;;;;;;;18.17;4.75;;;16.70;99.90;;;;;;5054576;28;20059;-67
2023/05/25 12:26:47;;;;;;;24.17;4.63;;;16.90;99.90;;;;;;5068863;28;20036;-67
2023/05/25 12:29:13;;;;;;;22.00;5.32;;;17.30;99.90;;;;;;5073350;28;20063;-67
2023/05/25 12:31:39;;;;;;;19.42;5.70;;;17.20;99.90;;;;;;5072425;28;20504;-67
2023/05/25 12:34:09;;;;;;;20.52;5.10;;;17.10;99.90;;;;;;5071461;28;20044;-66
2023/05/25 12:36:46;;;;;;;23.85;4.70;;;17.30;99.90;;;;;;5057956;28;20087;-67
2023/05/25 12:39:17;;;;;;;20.02;4.88;;;17.50;99.90;;;;;;5052987;28;20111;-67
2023/05/25 12:41:50;;;;;;;20.80;5.18;;;17.50;99.90;;;;;;5059415;28;20624;-66
2023/05/25 12:44:20;;;;;;;20.58;4.80;;;16.90;99.90;;;;;;5052145;28;20041;-67
2023/05/25 12:46:49;;;;;;;24.45;6.43;;;17.10;99.90;;;;;;5058453;28;20055;-67
2023/05/25 12:49:22;;;;;;;20.20;4.50;;;16.70;99.90;;;;;;5055605;28;20044;-67
2023/05/25 12:51:47;;;;;;;26.73;5.55;;;17.40;99.90;;;;;;5051973;28;20044;-67